Cherokee County Rgnl Information

FAA: CKP - ICAO: KCKP

Cherokee County Rgnl (Airport) Location

State Iowa
County Cherokee
City Cherokee
Cherokee County Rgnl (Airport) is 1 mile south of Cherokee, IA.
Latitude 42-43-53.0000N
Longitude 095-33-21.8000W
Elevation 1,226ft

Cherokee County Rgnl METARs

METAR KCKP 170515Z AUTO 08003KT 10SM CLR 14/04 A2996 RMK AO2 T01420035
Altimeter 29.96"
Temperature 14.2°C (57.6°F)
Wind 80° at 3KT
Clouds Skies are clear.
Visibility 10.0mi
Time observed: 2022-05-17T05:15:00Z

Cherokee County Rgnl (Airport) Details

Status Operational
Activation April 1940
Ownership Public
Usage Public
Chart OMAHA
ATC on-site No
Beacon schedule sunset-sunrise
Beacon color clear green

Cherokee County Rgnl (Airport) Contacts

Owner CITY OF CHEROKEE
Owner address 1201 SOUTH 2ND STREET, CHEROKEE, IA 51012
Owner phone (712) 229-9365
Manager GAYLON ISLEY
Manager address RT 4, 204 JEPSEN ROAD, CEDAR FALLS, IA 50613
Manager phone 319-266-7982

Cherokee County Rgnl Radio Frequencies

Cherokee County Rgnl (Airport) Radio Frequencies

UNICOM 122.8
Common traffic advisory frequency (CTAF) 122.8